Time;durP1;ratioP1;P1;durP2;ratioP2;P2;SDS_P1;SDS_P2;PMS_P1;PMS_P2;Temp;Humidity;BMP_temperature;BMP_pressure;BME280_temperature;BME280_humidity;BME280_pressure;Samples;Min_cycle;Max_cycle;Signal;HPM_P1;HPM_P2
2020/12/18 00:02:03;;;;;;;14.93;7.18;;;;;;;6.12;100.00;102080.56;5057882;28;20032;-78
2020/12/18 00:04:28;;;;;;;17.42;7.13;;;;;;;6.04;100.00;102094.63;5050419;28;20076;-79
2020/12/18 00:06:54;;;;;;;20.38;8.05;;;;;;;6.04;100.00;102089.38;5049672;28;20021;-79
2020/12/18 00:09:19;;;;;;;22.67;8.65;;;;;;;6.03;100.00;102078.00;5051784;28;20566;-78
2020/12/18 00:11:44;;;;;;;15.57;8.23;;;;;;;5.97;100.00;102086.78;5057929;28;20029;-80
2020/12/18 00:14:09;;;;;;;21.73;7.93;;;;;;;5.92;100.00;102085.94;5049069;28;20504;-78
2020/12/18 00:16:35;;;;;;;24.15;9.23;;;;;;;5.89;100.00;102085.91;5058863;28;20028;-79
2020/12/18 00:19:00;;;;;;;18.00;8.45;;;;;;;5.91;100.00;102084.19;5050133;28;20028;-79
2020/12/18 00:21:25;;;;;;;18.17;8.45;;;;;;;5.80;100.00;102085.97;5052956;28;20032;-79
2020/12/18 00:23:51;;;;;;;20.73;8.00;;;;;;;5.85;100.00;102081.56;5048786;28;20028;-79
2020/12/18 00:26:17;;;;;;;21.23;8.30;;;;;;;5.72;100.00;102077.25;5052366;28;20028;-80
2020/12/18 00:28:43;;;;;;;12.35;8.10;;;;;;;5.73;100.00;102076.38;5055876;28;20025;-79
2020/12/18 00:31:09;;;;;;;18.40;7.72;;;;;;;5.72;100.00;102077.25;5056098;28;20093;-79
2020/12/18 00:33:34;;;;;;;11.70;8.68;;;;;;;5.68;100.00;102079.03;5054964;28;20037;-79
2020/12/18 00:36:00;;;;;;;18.10;9.30;;;;;;;5.64;100.00;102081.66;5039917;28;20554;-79
2020/12/18 00:38:25;;;;;;;19.95;9.90;;;;;;;5.55;100.00;102081.69;5051710;28;20511;-79
2020/12/18 00:40:50;;;;;;;20.85;9.52;;;;;;;5.62;100.00;102083.41;5056460;28;20025;-79
2020/12/18 00:43:16;;;;;;;16.40;9.00;;;;;;;5.54;100.00;102078.22;5048727;28;20397;-79
2020/12/18 00:45:43;;;;;;;18.63;8.75;;;;;;;5.58;100.00;102077.31;5054056;28;20044;-78
2020/12/18 00:48:08;;;;;;;21.75;9.63;;;;;;;5.55;100.00;102077.31;5049152;28;20079;-79
2020/12/18 00:50:33;;;;;;;18.92;9.25;;;;;;;5.53;100.00;102072.97;5039134;28;20021;-79
2020/12/18 00:52:59;;;;;;;22.67;9.85;;;;;;;5.57;100.00;102080.84;5055990;28;20037;-79
2020/12/18 00:55:24;;;;;;;20.25;9.68;;;;;;;5.58;100.00;102079.09;5053649;28;20028;-79
2020/12/18 00:57:49;;;;;;;25.38;10.57;;;;;;;5.61;100.00;102079.06;5052451;28;20032;-79
2020/12/18 01:00:16;;;;;;;20.38;9.50;;;;;;;5.61;100.00;102074.66;5051770;28;20029;-79
2020/12/18 01:02:41;;;;;;;23.50;9.80;;;;;;;5.62;100.00;102076.44;5048160;28;20126;-79
2020/12/18 01:05:07;;;;;;;25.67;9.70;;;;;;;5.66;100.00;102078.16;5058727;28;20629;-78
2020/12/18 01:07:32;;;;;;;17.90;10.07;;;;;;;5.68;100.00;102076.41;5050561;28;20073;-79
2020/12/18 01:09:57;;;;;;;17.98;9.32;;;;;;;5.63;100.00;102069.44;5052065;28;20478;-79
2020/12/18 01:12:22;;;;;;;16.70;9.10;;;;;;;5.61;100.00;102066.81;5070204;28;20031;-79
2020/12/18 01:14:48;;;;;;;19.08;8.85;;;;;;;5.62;100.00;102070.28;5059185;28;20033;-79
2020/12/18 01:17:13;;;;;;;19.40;10.00;;;;;;;5.59;100.00;102062.47;5062433;28;20033;-78
2020/12/18 01:19:39;;;;;;;21.15;9.70;;;;;;;5.48;100.00;102064.25;5054698;28;20559;-79
2020/12/18 01:22:04;;;;;;;17.50;10.07;;;;;;;5.47;100.00;102065.97;5055081;28;20017;-79
2020/12/18 01:24:29;;;;;;;17.00;10.45;;;;;;;5.51;100.00;102062.47;5057529;28;20032;-79
2020/12/18 01:26:55;;;;;;;21.38;10.18;;;;;;;5.46;100.00;102061.63;5059846;28;20103;-79
2020/12/18 01:29:20;;;;;;;22.42;10.75;;;;;;;5.42;100.00;102068.66;5062587;28;20025;-80
2020/12/18 01:31:46;;;;;;;23.90;10.07;;;;;;;5.47;100.00;102065.97;5057164;28;20021;-79
2020/12/18 01:34:11;;;;;;;22.08;10.20;;;;;;;5.35;100.00;102059.03;5055203;28;20036;-80
2020/12/18 01:36:36;;;;;;;20.60;10.73;;;;;;;5.29;100.00;102068.69;5060415;28;20035;-79
2020/12/18 01:39:03;;;;;;;21.30;10.63;;;;;;;5.33;100.00;102065.19;5051519;28;20067;-79
2020/12/18 01:41:28;;;;;;;21.65;9.98;;;;;;;5.36;100.00;102071.28;5059472;28;20029;-79
2020/12/18 01:43:53;;;;;;;24.83;10.52;;;;;;;5.35;100.00;102066.91;5052076;28;20016;-79
2020/12/18 01:46:20;;;;;;;18.55;9.80;;;;;;;5.30;100.00;102068.66;5056652;28;20029;-79
2020/12/18 01:48:46;;;;;;;23.52;10.88;;;;;;;5.30;100.00;102063.44;5054471;28;20021;-80
2020/12/18 01:51:12;;;;;;;27.20;11.32;;;;;;;5.27;100.00;102062.56;5060973;28;20381;-79
2020/12/18 01:53:40;;;;;;;25.42;11.77;;;;;;;5.29;100.00;102060.81;5057491;28;20025;-80
2020/12/18 01:56:07;;;;;;;25.55;11.90;;;;;;;5.25;100.00;102064.31;5054019;28;20066;-79
2020/12/18 01:58:34;;;;;;;19.33;10.55;;;;;;;5.24;100.00;102068.69;5043167;28;20032;-80
2020/12/18 02:01:04;;;;;;;19.80;10.75;;;;;;;5.23;100.00;102071.34;5046234;28;20021;-80
2020/12/18 02:03:29;;;;;;;25.70;12.10;;;;;;;5.19;100.00;102073.94;5056386;28;20025;-79
2020/12/18 02:05:56;;;;;;;26.55;10.77;;;;;;;5.10;100.00;102065.25;5057165;28;20052;-79
2020/12/18 02:08:25;;;;;;;23.92;13.00;;;;;;;5.00;100.00;102068.75;5056241;28;20135;-80
2020/12/18 02:10:50;;;;;;;19.33;12.02;;;;;;;4.92;100.00;102072.28;5057308;28;20025;-80
2020/12/18 02:13:19;;;;;;;25.67;11.25;;;;;;;5.04;100.00;102075.75;5055923;28;20037;-79
2020/12/18 02:15:44;;;;;;;22.13;10.93;;;;;;;5.07;100.00;102070.47;5055106;28;20043;-79
2020/12/18 02:18:09;;;;;;;27.45;10.80;;;;;;;5.08;100.00;102065.25;5055534;28;20033;-80
2020/12/18 02:20:35;;;;;;;27.80;11.30;;;;;;;5.09;100.00;102058.25;5058884;28;20029;-80
2020/12/18 02:23:00;;;;;;;27.90;11.50;;;;;;;4.97;100.00;102047.78;5056976;28;20029;-80
2020/12/18 02:25:29;;;;;;;19.67;11.98;;;;;;;5.01;100.00;102054.78;5059257;28;20043;-79
2020/12/18 02:27:55;;;;;;;30.70;13.38;;;;;;;5.03;100.00;102053.03;5051673;28;20040;-78
2020/12/18 02:30:20;;;;;;;27.58;11.45;;;;;;;5.03;100.00;102051.28;5058298;28;20029;-79
2020/12/18 02:32:45;;;;;;;22.40;11.50;;;;;;;5.07;100.00;102052.13;5054726;28;20111;-78
2020/12/18 02:35:10;;;;;;;19.77;11.50;;;;;;;5.04;100.00;102049.53;5053433;28;20426;-78
2020/12/18 02:37:36;;;;;;;25.75;11.60;;;;;;;5.00;100.00;102053.03;5056551;28;20024;-79
2020/12/18 02:40:02;;;;;;;21.98;11.10;;;;;;;5.04;100.00;102041.69;5048952;28;20025;-79
2020/12/18 02:42:28;;;;;;;31.55;12.30;;;;;;;5.07;100.00;102049.50;5052001;28;20055;-79
2020/12/18 02:44:53;;;;;;;28.27;12.50;;;;;;;5.10;100.00;102049.50;5051078;28;20032;-78
2020/12/18 02:47:18;;;;;;;26.20;12.35;;;;;;;5.09;100.00;102046.03;5054071;28;20024;-78
2020/12/18 02:49:44;;;;;;;26.88;11.60;;;;;;;5.07;100.00;102039.94;5052933;28;20025;-79
2020/12/18 02:52:09;;;;;;;25.55;12.02;;;;;;;5.15;100.00;102039.88;5054126;28;20064;-78
2020/12/18 02:54:35;;;;;;;22.80;10.68;;;;;;;5.12;100.00;102042.50;5055129;28;20503;-79
2020/12/18 02:57:00;;;;;;;32.28;11.30;;;;;;;5.22;100.00;102041.63;5057902;28;20497;-79
2020/12/18 02:59:25;;;;;;;28.35;12.15;;;;;;;5.15;100.00;102035.53;5052514;28;20024;-79
2020/12/18 03:05:12;;;;;;;27.08;9.75;;;;;;;5.17;100.00;102036.41;5049676;28;20043;-78
2020/12/18 03:07:38;;;;;;;28.35;11.10;;;;;;;5.19;100.00;102026.78;5039928;28;20410;-78
2020/12/18 03:10:03;;;;;;;29.42;10.77;;;;;;;5.16;100.00;102031.16;5051381;28;20387;-77
2020/12/18 03:12:28;;;;;;;27.23;12.38;;;;;;;5.10;100.00;102032.03;5063596;28;20033;-79
2020/12/18 03:14:53;;;;;;;32.03;11.50;;;;;;;5.14;100.00;102031.16;5051981;28;20032;-79
2020/12/18 03:17:19;;;;;;;21.33;10.25;;;;;;;5.14;100.00;102030.28;5052695;28;20020;-79
2020/12/18 03:19:44;;;;;;;29.27;11.05;;;;;;;5.16;100.00;102023.28;5053398;28;20040;-79
2020/12/18 03:22:09;;;;;;;24.60;10.32;;;;;;;5.13;100.00;102031.16;5072791;28;20370;-78
2020/12/18 03:24:34;;;;;;;28.38;10.90;;;;;;;5.19;100.00;102039.88;5051421;28;20024;-78
2020/12/18 03:27:00;;;;;;;22.13;9.85;;;;;;;5.15;100.00;102035.53;5062258;28;20488;-79
2020/12/18 03:29:25;;;;;;;20.63;9.57;;;;;;;5.16;100.00;102036.38;5058312;28;20032;-79
2020/12/18 03:31:50;;;;;;;21.08;9.45;;;;;;;5.22;100.00;102032.88;5061925;28;20028;-79
2020/12/18 03:34:15;;;;;;;29.85;10.95;;;;;;;5.24;100.00;102029.38;5054002;28;20028;-78
2020/12/18 03:36:42;;;;;;;28.23;10.82;;;;;;;5.22;100.00;102033.78;5056058;28;20041;-79
2020/12/18 03:39:07;;;;;;;24.27;10.80;;;;;;;5.22;100.00;102032.88;5053594;28;20033;-78
2020/12/18 03:41:33;;;;;;;26.60;10.20;;;;;;;5.14;100.00;102019.81;5054613;28;20048;-78
2020/12/18 03:43:58;;;;;;;20.33;10.35;;;;;;;5.13;100.00;102028.56;5049935;28;20033;-78
2020/12/18 03:46:24;;;;;;;18.30;9.93;;;;;;;5.10;100.00;102024.19;5059065;28;20074;-78
2020/12/18 03:48:49;;;;;;;20.70;9.38;;;;;;;5.16;100.00;102016.28;5053710;28;20035;-78
2020/12/18 03:51:14;;;;;;;21.67;10.25;;;;;;;5.16;100.00;102018.91;5057026;28;20043;-78
2020/12/18 03:53:40;;;;;;;19.67;9.55;;;;;;;5.16;100.00;102021.53;5056932;28;20016;-79
2020/12/18 03:56:05;;;;;;;31.05;10.20;;;;;;;5.17;100.00;102017.16;5056134;28;20072;-78
2020/12/18 03:58:30;;;;;;;21.50;9.10;;;;;;;5.18;100.00;102016.31;5054637;28;20028;-79
2020/12/18 04:00:55;;;;;;;33.83;9.98;;;;;;;5.16;100.00;102024.16;5053971;28;20033;-79
2020/12/18 04:03:21;;;;;;;29.83;9.10;;;;;;;5.10;100.00;102016.31;5059523;28;20413;-78
2020/12/18 04:05:47;;;;;;;27.70;9.93;;;;;;;5.15;100.00;102009.31;5055864;28;20021;-78
2020/12/18 04:08:12;;;;;;;21.98;9.30;;;;;;;5.13;100.00;102011.06;5040810;28;20056;-78
2020/12/18 04:10:37;;;;;;;26.33;9.90;;;;;;;5.12;100.00;102011.06;5057918;28;20111;-78
2020/12/18 04:13:03;;;;;;;21.25;9.73;;;;;;;5.17;100.00;102009.28;5055632;28;20021;-78
2020/12/18 04:15:28;;;;;;;23.65;10.15;;;;;;;5.19;100.00;102013.66;5062126;28;20658;-78
2020/12/18 04:17:53;;;;;;;21.38;8.70;;;;;;;5.25;100.00;102019.75;5059232;28;20035;-78
2020/12/18 04:20:18;;;;;;;26.67;8.77;;;;;;;5.19;100.00;102007.56;5056806;28;20505;-78
2020/12/18 04:22:44;;;;;;;23.33;8.38;;;;;;;5.20;100.00;101999.69;5050257;28;20028;-78
2020/12/18 04:25:09;;;;;;;21.95;8.57;;;;;;;5.19;100.00;101999.69;5053852;28;20056;-78
2020/12/18 04:27:34;;;;;;;17.63;7.97;;;;;;;5.23;100.00;102000.56;5058162;28;20029;-78
2020/12/18 04:30:00;;;;;;;27.73;9.20;;;;;;;5.25;100.00;102004.91;5052381;28;20032;-79
2020/12/18 04:32:25;;;;;;;20.08;8.73;;;;;;;5.22;100.00;101994.44;5059820;28;20043;-79
2020/12/18 04:34:50;;;;;;;18.30;7.75;;;;;;;5.26;100.00;101990.91;5047650;28;20032;-79
2020/12/18 04:37:16;;;;;;;28.35;9.35;;;;;;;5.22;100.00;101990.94;5048251;28;20420;-79
2020/12/18 04:39:41;;;;;;;22.10;9.15;;;;;;;5.20;100.00;101990.94;5051575;28;20033;-79
2020/12/18 04:42:07;;;;;;;27.15;8.50;;;;;;;5.18;100.00;101980.47;5048175;28;20028;-79
2020/12/18 04:44:32;;;;;;;23.85;7.78;;;;;;;5.25;100.00;101981.31;5053999;28;20033;-79
2020/12/18 04:46:58;;;;;;;18.70;8.18;;;;;;;5.22;100.00;101980.44;5056498;28;20056;-79
2020/12/18 04:49:25;;;;;;;17.65;8.35;;;;;;;5.15;100.00;101972.63;5054790;28;20473;-79
2020/12/18 04:51:53;;;;;;;27.67;10.70;;;;;;;5.24;100.00;101971.72;5061009;28;20024;-79
2020/12/18 04:54:21;;;;;;;18.02;8.18;;;;;;;5.15;100.00;101971.75;5057416;28;20091;-79
2020/12/18 04:56:50;;;;;;;16.55;7.60;;;;;;;5.23;100.00;101969.13;5058695;28;20035;-79
2020/12/18 04:59:21;;;;;;;21.65;8.65;;;;;;;5.20;100.00;101965.59;5059754;28;20052;-79
2020/12/18 05:01:47;;;;;;;22.20;8.93;;;;;;;5.15;100.00;101970.00;5060473;28;20099;-79
2020/12/18 05:04:15;;;;;;;13.88;7.88;;;;;;;5.20;100.00;101962.97;5057018;28;20107;-80
2020/12/18 05:06:40;;;;;;;24.83;9.02;;;;;;;5.23;100.00;101963.88;5056462;28;20441;-80
2020/12/18 05:09:05;;;;;;;14.90;7.55;;;;;;;5.25;100.00;101960.34;5054638;28;20052;-79
2020/12/18 05:11:30;;;;;;;17.77;7.78;;;;;;;5.20;100.00;101955.13;5059189;28;20043;-78
2020/12/18 05:13:56;;;;;;;24.33;8.70;;;;;;;5.19;100.00;101948.16;5057232;28;20033;-79
2020/12/18 05:16:23;;;;;;;20.45;8.95;;;;;;;5.20;100.00;101949.88;5056666;28;20481;-80
2020/12/18 05:18:49;;;;;;;20.98;7.57;;;;;;;5.26;100.00;101948.97;5058374;28;20079;-79
2020/12/18 05:21:15;;;;;;;18.48;8.18;;;;;;;5.34;100.00;101952.44;5053676;28;20021;-78
2020/12/18 05:23:43;;;;;;;14.77;6.50;;;;;;;5.31;100.00;101946.34;5058793;28;20429;-78
2020/12/18 05:26:10;;;;;;;18.90;7.40;;;;;;;5.25;100.00;101939.38;5063511;28;20033;-79
2020/12/18 05:28:41;;;;;;;22.85;7.05;;;;;;;5.28;100.00;101938.50;5069441;28;20086;-79
2020/12/18 05:31:16;;;;;;;20.02;7.10;;;;;;;5.28;100.00;101942.00;5022617;28;20489;-79
2020/12/18 05:33:46;;;;;;;13.68;6.50;;;;;;;5.31;100.00;101941.97;5057660;28;20108;-79
2020/12/18 05:36:11;;;;;;;16.67;6.60;;;;;;;5.33;100.00;101945.47;5057163;28;20029;-79
2020/12/18 05:38:37;;;;;;;16.23;6.25;;;;;;;5.32;100.00;101933.25;5054799;28;20032;-79
2020/12/18 05:41:04;;;;;;;18.48;7.55;;;;;;;5.27;100.00;101929.78;5069000;28;20024;-78
2020/12/18 05:43:38;;;;;;;19.80;7.25;;;;;;;5.38;100.00;101937.56;5049755;28;20055;-79
2020/12/18 05:46:23;;;;;;;20.40;6.75;;;;;;;5.37;100.00;101935.81;5054507;28;20027;-79
2020/12/18 05:49:03;;;;;;;17.90;5.53;;;;;;;5.39;100.00;101934.06;5056009;28;20020;-79
2020/12/18 05:51:31;;;;;;;17.33;6.38;;;;;;;5.46;100.00;101930.53;5052304;28;20031;-79
2020/12/18 05:54:13;;;;;;;20.85;6.50;;;;;;;5.43;100.00;101934.03;5053238;28;20033;-81
2020/12/18 05:56:41;;;;;;;12.52;6.03;;;;;;;5.51;100.00;101927.88;5055136;28;20049;-79
2020/12/18 05:59:11;;;;;;;17.73;5.78;;;;;;;5.47;100.00;101934.88;5054397;28;20107;-78
2020/12/18 06:01:41;;;;;;;13.57;5.90;;;;;;;5.53;100.00;101936.63;5057661;28;20036;-79
2020/12/18 06:04:13;;;;;;;15.52;5.82;;;;;;;5.55;100.00;101934.84;5059161;28;20040;-79
2020/12/18 06:06:42;;;;;;;13.98;5.15;;;;;;;5.57;100.00;101938.31;5056596;28;20020;-80
2020/12/18 06:09:08;;;;;;;13.38;5.97;;;;;;;5.58;100.00;101950.56;5046673;28;20525;-79
2020/12/18 06:11:35;;;;;;;19.25;5.80;;;;;;;5.64;100.00;101946.16;5048663;28;20048;-79
2020/12/18 06:14:01;;;;;;;9.73;5.25;;;;;;;5.70;100.00;101947.84;5042096;28;20033;-79
2020/12/18 06:16:28;;;;;;;16.17;6.75;;;;;;;5.70;100.00;101948.72;5056180;28;20048;-79
2020/12/18 06:19:01;;;;;;;11.60;5.45;;;;;;;5.78;100.00;101951.31;5058771;28;20029;-79
2020/12/18 06:21:26;;;;;;;16.55;5.10;;;;;;;5.79;100.00;101946.94;5053743;28;20456;-78
2020/12/18 06:23:54;;;;;;;16.40;6.80;;;;;;;5.81;100.00;101953.03;5053364;28;20115;-79
2020/12/18 06:26:20;;;;;;;15.48;7.57;;;;;;;5.87;100.00;101950.34;5057426;28;20028;-79
2020/12/18 06:28:45;;;;;;;15.93;8.10;;;;;;;5.92;100.00;101936.38;5022249;28;20025;-78
2020/12/18 06:31:27;;;;;;;14.23;7.25;;;;;;;5.94;100.00;101938.97;5056040;28;20033;-79
2020/12/18 06:33:55;;;;;;;18.08;7.68;;;;;;;5.94;100.00;101936.34;5053053;28;20116;-78
2020/12/18 06:36:59;;;;;;;15.75;7.47;;;;;;;5.98;100.00;101932.84;5059389;28;20104;-78
2020/12/18 06:39:27;;;;;;;17.25;9.43;;;;;;;6.02;100.00;101944.16;5053307;28;20111;-79
2020/12/18 06:42:09;;;;;;;23.92;9.77;;;;;;;6.09;100.00;101938.84;5057407;28;20036;-78
2020/12/18 06:44:37;;;;;;;21.13;9.43;;;;;;;6.13;100.00;101932.69;5063516;28;20045;-79
2020/12/18 06:47:29;;;;;;;24.55;11.88;;;;;;;6.20;100.00;101930.88;5049895;28;20453;-78
2020/12/18 06:50:00;;;;;;;32.03;11.20;;;;;;;6.19;100.00;101931.78;5050164;28;20020;-79
2020/12/18 06:52:42;;;;;;;22.40;12.50;;;;;;;6.27;100.00;101935.19;5054335;28;20032;-78
2020/12/18 06:55:10;;;;;;;20.17;11.82;;;;;;;6.30;100.00;101926.41;5050151;28;20025;-78
2020/12/18 06:57:36;;;;;;;22.90;12.40;;;;;;;6.35;100.00;101941.25;5051790;28;20033;-78
2020/12/18 07:00:27;;;;;;;25.80;13.00;;;;;;;6.37;100.00;101947.34;5051245;28;20370;-78
2020/12/18 07:02:53;;;;;;;21.77;11.13;;;;;;;6.36;100.00;101957.88;5049907;28;20024;-77
2020/12/18 07:05:44;;;;;;;26.83;12.57;;;;;;;6.51;100.00;101938.47;5036557;28;20060;-76
2020/12/18 07:08:15;;;;;;;21.80;13.45;;;;;;;6.50;100.00;101948.09;5040247;28;20409;-77
2020/12/18 07:10:44;;;;;;;21.73;13.98;;;;;;;6.51;100.00;101949.84;5050222;28;20109;-77
2020/12/18 07:13:15;;;;;;;20.23;12.05;;;;;;;6.57;100.00;101946.28;5048345;28;20029;-77
2020/12/18 07:15:49;;;;;;;22.25;13.90;;;;;;;6.60;100.00;101959.38;5052782;28;20028;-78
2020/12/18 07:18:35;;;;;;;32.63;14.52;;;;;;;6.67;100.00;101961.06;5046923;28;20465;-77
2020/12/18 07:21:13;;;;;;;17.02;11.13;;;;;;;6.70;100.00;101951.41;5045401;28;20025;-79
2020/12/18 07:23:41;;;;;;;21.67;13.70;;;;;;;6.74;100.00;101954.88;5062679;28;20028;-77
2020/12/18 07:26:07;;;;;;;26.55;15.98;;;;;;;6.74;100.00;101950.47;5059861;28;20040;-78
2020/12/18 07:28:37;;;;;;;25.52;14.90;;;;;;;6.80;100.00;101954.78;5051705;28;20033;-80
2020/12/18 07:31:04;;;;;;;25.75;14.88;;;;;;;6.85;100.00;101965.25;5055067;28;20020;-79
2020/12/18 07:33:30;;;;;;;29.38;15.02;;;;;;;6.88;100.00;101965.25;5056289;28;20048;-79
2020/12/18 07:35:56;;;;;;;25.38;14.10;;;;;;;6.93;100.00;101966.06;5056282;28;20036;-79
2020/12/18 07:38:27;;;;;;;25.55;14.45;;;;;;;6.92;100.00;101986.19;5048685;28;20580;-79
2020/12/18 07:40:54;;;;;;;30.80;15.05;;;;;;;6.94;100.00;101980.94;5053911;28;20120;-79
2020/12/18 07:43:22;;;;;;;22.25;14.57;;;;;;;6.98;100.00;101990.53;5043068;28;20194;-79
2020/12/18 07:45:51;;;;;;;23.23;14.77;;;;;;;6.95;100.00;102001.06;5051798;28;20500;-79
2020/12/18 07:48:22;;;;;;;27.33;13.85;;;;;;;6.99;100.00;101990.50;5055530;28;20382;-78
2020/12/18 07:51:04;;;;;;;21.83;14.20;;;;;;;7.02;100.00;101997.47;5050097;28;20033;-80
2020/12/18 07:53:32;;;;;;;25.20;14.25;;;;;;;7.05;100.00;101989.56;5048234;28;20033;-78
2020/12/18 07:56:02;;;;;;;26.83;14.90;;;;;;;7.05;100.00;101986.94;5056043;28;20109;-78
2020/12/18 07:58:29;;;;;;;23.58;14.82;;;;;;;7.05;100.00;101991.31;5062099;28;20062;-78
2020/12/18 08:01:13;;;;;;;21.55;14.27;;;;;;;7.12;100.00;101995.59;5050819;28;20046;-79
2020/12/18 08:03:42;;;;;;;25.35;13.60;;;;;;;7.16;100.00;101989.44;5045616;28;20036;-77
2020/12/18 08:06:14;;;;;;;22.00;13.57;;;;;;;7.13;100.00;101987.72;5051890;28;20461;-78
2020/12/18 08:08:39;;;;;;;27.08;13.02;;;;;;;7.21;100.00;101990.25;5046803;28;20049;-77
2020/12/18 08:11:12;;;;;;;20.55;10.77;;;;;;;7.35;100.00;101995.34;5048090;28;20125;-78
2020/12/18 08:13:38;;;;;;;19.80;10.40;;;;;;;7.39;99.56;101987.38;5054228;28;20021;-78
2020/12/18 08:16:11;;;;;;;22.15;10.10;;;;;;;7.48;98.81;101991.63;5049407;28;20029;-77
2020/12/18 08:18:36;;;;;;;19.20;8.93;;;;;;;7.51;98.28;101984.59;5059333;28;20029;-79
2020/12/18 08:21:03;;;;;;;19.38;8.95;;;;;;;7.57;97.79;101977.50;5051726;28;20032;-79
2020/12/18 08:23:29;;;;;;;14.13;8.43;;;;;;;7.60;97.43;101975.69;5055942;28;20408;-78
2020/12/18 08:25:56;;;;;;;13.00;7.60;;;;;;;7.63;97.14;101972.13;5052324;28;20025;-81
2020/12/18 08:28:23;;;;;;;13.45;8.00;;;;;;;7.60;97.22;101980.97;5051047;28;20036;-79
2020/12/18 08:30:49;;;;;;;20.00;8.65;;;;;;;7.64;96.63;101961.63;5051657;28;20029;-80
2020/12/18 08:33:18;;;;;;;12.27;7.15;;;;;;;7.64;96.72;101960.75;5053788;28;20035;-79
2020/12/18 08:35:47;;;;;;;11.85;7.15;;;;;;;7.68;96.21;101965.94;5050547;28;20478;-79
2020/12/18 08:38:13;;;;;;;13.10;7.85;;;;;;;7.69;96.65;101977.34;5047545;28;20032;-79
2020/12/18 08:40:42;;;;;;;15.70;7.00;;;;;;;7.83;95.92;101966.59;5053845;28;20094;-78
2020/12/18 08:43:09;;;;;;;17.25;8.05;;;;;;;7.82;95.95;101956.97;5046903;28;20104;-79
2020/12/18 08:45:42;;;;;;;13.15;8.57;;;;;;;7.86;95.73;101963.91;5053571;28;20094;-80
2020/12/18 08:48:08;;;;;;;17.60;7.30;;;;;;;7.90;95.40;101976.16;5056099;28;20558;-80
2020/12/18 08:50:34;;;;;;;14.10;7.15;;;;;;;8.05;94.68;101968.00;5049599;28;20037;-80
2020/12/18 08:53:15;;;;;;;11.18;7.65;;;;;;;8.35;92.92;101960.50;5050347;28;20029;-80
2020/12/18 08:55:40;;;;;;;11.50;7.45;;;;;;;8.21;93.70;101963.34;5036527;28;20056;-79
2020/12/18 08:58:08;;;;;;;13.27;8.07;;;;;;;8.53;92.33;101970.72;5051958;28;20115;-80
2020/12/18 09:00:34;;;;;;;18.30;8.55;;;;;;;8.39;93.33;101976.25;5046627;28;20044;-81
2020/12/18 09:03:01;;;;;;;14.70;7.35;;;;;;;8.46;92.75;101972.59;5046674;28;20048;-80
2020/12/18 09:05:30;;;;;;;15.07;7.13;;;;;;;8.88;91.36;101977.09;5045589;28;20029;-79
2020/12/18 09:08:00;;;;;;;14.10;6.30;;;;;;;9.27;89.08;101973.66;5049806;28;20089;-80
2020/12/18 09:10:41;;;;;;;14.25;6.88;;;;;;;9.20;89.05;101969.44;5044922;28;20036;-80
2020/12/18 09:13:14;;;;;;;11.20;5.90;;;;;;;9.30;88.29;101963.06;5048545;28;20037;-80
2020/12/18 09:15:41;;;;;;;11.20;6.13;;;;;;;9.99;86.12;101969.44;5052322;28;20077;-80
2020/12/18 09:18:08;;;;;;;16.27;6.05;;;;;;;9.74;86.47;101965.59;5053930;28;20056;-80
2020/12/18 09:20:36;;;;;;;14.77;5.68;;;;;;;10.07;85.04;101962.16;5048093;28;20039;-80
2020/12/18 09:23:05;;;;;;;17.75;5.95;;;;;;;10.37;84.12;101965.84;5048037;28;20017;-80
2020/12/18 09:25:36;;;;;;;10.73;5.88;;;;;;;10.44;83.12;101960.41;5053216;28;20021;-80
2020/12/18 09:28:01;;;;;;;12.80;5.50;;;;;;;11.02;81.28;101950.88;5054464;28;20555;-79
2020/12/18 09:30:29;;;;;;;10.48;5.20;;;;;;;11.34;80.70;101957.88;5050599;28;20036;-78
2020/12/18 09:33:10;;;;;;;10.73;4.90;;;;;;;10.34;83.53;101963.31;5054409;28;20409;-78
2020/12/18 09:35:36;;;;;;;28.83;7.43;;;;;;;10.33;83.42;101961.53;5050160;28;20461;-79
2020/12/18 09:38:01;;;;;;;12.95;5.50;;;;;;;10.87;81.92;101962.78;5056606;28;20099;-80
2020/12/18 09:40:28;;;;;;;10.27;4.80;;;;;;;10.13;84.53;101974.34;5052814;28;20029;-79
2020/12/18 09:42:53;;;;;;;13.88;5.05;;;;;;;10.39;83.83;101973.72;5054986;28;20409;-80
2020/12/18 09:45:18;;;;;;;13.80;4.50;;;;;;;10.38;83.45;101972.88;5055942;28;20041;-79
2020/12/18 09:47:44;;;;;;;10.70;4.60;;;;;;;10.28;84.05;101970.50;5051325;28;20033;-80
2020/12/18 09:50:09;;;;;;;13.93;4.55;;;;;;;10.51;82.68;101968.16;5049183;28;20041;-80
2020/12/18 09:52:34;;;;;;;9.73;4.03;;;;;;;11.22;79.65;101963.53;5049622;28;21049;-79
2020/12/18 09:54:59;;;;;;;14.05;4.53;;;;;;;11.86;76.86;101970.44;5049458;28;20040;-80
2020/12/18 09:57:26;;;;;;;10.10;3.90;;;;;;;11.71;77.34;101956.78;5051548;28;20028;-79
2020/12/18 09:59:51;;;;;;;12.82;4.25;;;;;;;12.11;75.86;101965.19;5049050;28;20036;-80
2020/12/18 10:02:17;;;;;;;15.55;3.75;;;;;;;12.17;75.97;101956.19;5048699;28;20028;-79
2020/12/18 10:04:42;;;;;;;12.40;4.68;;;;;;;12.34;75.11;101964.41;5048168;28;20056;-79
2020/12/18 10:07:07;;;;;;;11.07;5.03;;;;;;;11.93;76.16;101965.78;5050167;28;20033;-80
2020/12/18 10:09:33;;;;;;;10.73;4.13;;;;;;;11.69;76.95;101954.16;5034692;28;20048;-79
2020/12/18 10:11:59;;;;;;;8.65;3.22;;;;;;;12.48;74.40;101957.78;5054546;28;20025;-80
2020/12/18 10:14:25;;;;;;;10.52;3.85;;;;;;;12.32;75.20;101957.44;5056760;28;20025;-80
2020/12/18 10:16:50;;;;;;;13.45;4.45;;;;;;;12.32;74.83;101957.44;5048049;28;20043;-80
2020/12/18 10:19:15;;;;;;;13.55;3.50;;;;;;;11.95;76.41;101963.97;5050172;28;20028;-79
2020/12/18 10:21:40;;;;;;;10.30;4.60;;;;;;;12.52;74.77;101940.84;5047505;28;20048;-84
2020/12/18 10:24:06;;;;;;;11.02;3.45;;;;;;;12.44;74.38;101936.66;5054297;28;20541;-84
2020/12/18 10:26:31;;;;;;;11.63;3.28;;;;;;;12.49;74.18;101939.16;5049245;28;20040;-84
2020/12/18 10:28:56;;;;;;;12.40;3.42;;;;;;;12.61;74.21;101924.63;5053424;28;20043;-80
2020/12/18 10:31:21;;;;;;;13.30;3.17;;;;;;;12.52;74.52;101923.16;5057667;28;20040;-80
2020/12/18 10:33:47;;;;;;;11.60;3.00;;;;;;;12.57;74.49;101910.59;5051048;28;20040;-80
2020/12/18 10:36:12;;;;;;;12.82;3.00;;;;;;;12.04;76.27;101904.50;5054221;28;20040;-80
2020/12/18 10:38:37;;;;;;;10.07;2.88;;;;;;;11.42;78.40;101916.16;5040632;28;20024;-79
2020/12/18 10:41:02;;;;;;;8.98;3.22;;;;;;;11.13;79.51;101909.09;5049516;28;20402;-80
2020/12/18 10:43:28;;;;;;;8.35;2.80;;;;;;;11.60;78.55;101917.41;5045631;28;20032;-79
2020/12/18 10:45:53;;;;;;;10.75;3.28;;;;;;;11.93;76.96;101915.44;5055201;28;20033;-81
2020/12/18 10:48:18;;;;;;;10.25;2.92;;;;;;;12.18;76.61;101908.41;5048459;28;20033;-80
2020/12/18 10:50:43;;;;;;;12.82;3.55;;;;;;;11.92;77.28;101909.28;5054548;28;20048;-80
2020/12/18 10:53:09;;;;;;;13.80;2.83;;;;;;;12.00;76.44;101898.47;5049568;28;20035;-80
2020/12/18 10:55:35;;;;;;;11.73;2.70;;;;;;;12.47;75.28;101895.94;5047494;28;21572;-80
2020/12/18 10:58:00;;;;;;;11.73;2.67;;;;;;;12.36;75.18;101882.19;5044949;28;20029;-80
2020/12/18 11:00:25;;;;;;;10.13;3.38;;;;;;;12.99;73.37;101864.81;5045261;28;20941;-79
2020/12/18 11:02:51;;;;;;;16.50;4.18;;;;;;;12.98;72.88;101856.94;5052302;28;20388;-80
2020/12/18 11:05:16;;;;;;;12.88;3.03;;;;;;;12.86;73.30;101848.53;5054019;28;20043;-80
2020/12/18 11:07:41;;;;;;;10.68;2.53;;;;;;;12.77;73.63;101848.00;5052039;28;20037;-81
2020/12/18 11:10:06;;;;;;;16.77;2.92;;;;;;;13.09;72.59;101842.31;5049092;28;20045;-80
2020/12/18 11:12:32;;;;;;;14.73;3.33;;;;;;;13.33;72.24;101853.78;5054206;28;20465;-82
2020/12/18 11:14:57;;;;;;;9.27;2.65;;;;;;;13.56;70.72;101828.97;5053535;28;20044;-80
2020/12/18 11:17:22;;;;;;;13.32;2.60;;;;;;;13.64;70.43;101845.44;5051641;28;20494;-79
2020/12/18 11:19:47;;;;;;;14.73;3.97;;;;;;;13.31;71.17;101847.69;5060104;28;20043;-79